Ada, West Virginia
Current Conditions -  °F | °C
As of 7:52 AM on Tuesday 21 Oct 2014 (Local Time) from KBLF Reporting Station
Overcast Overcast  
Wind Chill: 50°   Ceiling: 1200
Heat Index: 50°   Visibility: 10mi
Dew Point: 46°   Wind: 5mph
Humidity: 86%   Direction: 260°W
Pressure: 29.95"   Gusts: NA
Location:  37.2994°N, 81.226°W
Report Text: KBLF 211152Z AUTO 26004KT 10SM BKN012 OVC024 10/08 A2995 RMK AO2 SLP129 70003 T01000078 10111 20089 53000
Loading
Personal Weather Stations






























Interactive Weather Map New forecast layout! Learn more

10-Day Weather Forecast

Advertisements
Track Severe Weather on mobile